sensor_id;sensor_type;location;lat;lon;timestamp;pressure;altitude;pressure_sealevel;temperature;humidity
27888;BME280;15237;49.608;7.170;2022-09-16T00:00:42;972.24;;;25.33;38.28
27888;BME280;15237;49.608;7.170;2022-09-16T00:01:20;972.25;;;25.34;38.27
27888;BME280;15237;49.608;7.170;2022-09-16T00:01:59;972.24;;;25.33;38.28
27888;BME280;15237;49.608;7.170;2022-09-16T00:02:39;972.23;;;25.30;38.32
27888;BME280;15237;49.608;7.170;2022-09-16T00:03:16;972.26;;;25.30;38.31
27888;BME280;15237;49.608;7.170;2022-09-16T00:03:55;972.24;;;25.30;38.33
27888;BME280;15237;49.608;7.170;2022-09-16T00:04:33;972.25;;;25.31;38.30
27888;BME280;15237;49.608;7.170;2022-09-16T00:05:11;972.26;;;25.31;38.29
27888;BME280;15237;49.608;7.170;2022-09-16T00:05:51;972.25;;;25.32;38.29
27888;BME280;15237;49.608;7.170;2022-09-16T00:06:33;972.27;;;25.32;38.29
27888;BME280;15237;49.608;7.170;2022-09-16T00:07:11;972.28;;;25.31;38.29
27888;BME280;15237;49.608;7.170;2022-09-16T00:07:49;972.27;;;25.32;38.27
27888;BME280;15237;49.608;7.170;2022-09-16T00:08:27;972.27;;;25.31;38.30
27888;BME280;15237;49.608;7.170;2022-09-16T00:09:09;972.26;;;25.30;38.31
27888;BME280;15237;49.608;7.170;2022-09-16T00:09:46;972.28;;;25.33;38.27
27888;BME280;15237;49.608;7.170;2022-09-16T00:10:28;972.27;;;25.33;38.24
27888;BME280;15237;49.608;7.170;2022-09-16T00:11:06;972.29;;;25.35;38.20
27888;BME280;15237;49.608;7.170;2022-09-16T00:11:44;972.27;;;25.35;38.22
27888;BME280;15237;49.608;7.170;2022-09-16T00:12:23;972.26;;;25.36;38.21
27888;BME280;15237;49.608;7.170;2022-09-16T00:13:02;972.22;;;25.35;38.20
27888;BME280;15237;49.608;7.170;2022-09-16T00:13:40;972.22;;;25.35;38.23
27888;BME280;15237;49.608;7.170;2022-09-16T00:14:18;972.18;;;25.34;38.24
27888;BME280;15237;49.608;7.170;2022-09-16T00:14:57;972.16;;;25.33;38.26
27888;BME280;15237;49.608;7.170;2022-09-16T00:15:46;972.12;;;25.33;38.26
27888;BME280;15237;49.608;7.170;2022-09-16T00:16:27;972.10;;;25.37;38.16
27888;BME280;15237;49.608;7.170;2022-09-16T00:17:10;972.08;;;25.38;38.18
27888;BME280;15237;49.608;7.170;2022-09-16T00:17:48;972.06;;;25.37;38.17
27888;BME280;15237;49.608;7.170;2022-09-16T00:18:26;972.04;;;25.36;38.19
27888;BME280;15237;49.608;7.170;2022-09-16T00:19:07;972.03;;;25.33;38.25
27888;BME280;15237;49.608;7.170;2022-09-16T00:19:45;972.05;;;25.32;38.27
27888;BME280;15237;49.608;7.170;2022-09-16T00:20:23;972.05;;;25.31;38.28
27888;BME280;15237;49.608;7.170;2022-09-16T00:21:01;972.03;;;25.31;38.28
27888;BME280;15237;49.608;7.170;2022-09-16T00:21:40;972.02;;;25.30;38.30
27888;BME280;15237;49.608;7.170;2022-09-16T00:22:18;972.00;;;25.31;38.27
27888;BME280;15237;49.608;7.170;2022-09-16T00:22:57;971.97;;;25.30;38.29
27888;BME280;15237;49.608;7.170;2022-09-16T00:23:35;971.97;;;25.29;38.33
27888;BME280;15237;49.608;7.170;2022-09-16T00:24:13;971.95;;;25.28;38.34
27888;BME280;15237;49.608;7.170;2022-09-16T00:24:53;971.92;;;25.27;38.36
27888;BME280;15237;49.608;7.170;2022-09-16T00:25:33;971.91;;;25.26;38.34
27888;BME280;15237;49.608;7.170;2022-09-16T00:26:11;971.90;;;25.26;38.36
27888;BME280;15237;49.608;7.170;2022-09-16T00:26:50;971.91;;;25.27;38.34
27888;BME280;15237;49.608;7.170;2022-09-16T00:27:28;971.89;;;25.27;38.34
27888;BME280;15237;49.608;7.170;2022-09-16T00:28:06;971.86;;;25.27;38.33
27888;BME280;15237;49.608;7.170;2022-09-16T00:28:46;971.81;;;25.28;38.32
27888;BME280;15237;49.608;7.170;2022-09-16T00:29:25;971.80;;;25.28;38.33
27888;BME280;15237;49.608;7.170;2022-09-16T00:30:03;971.77;;;25.29;38.31
27888;BME280;15237;49.608;7.170;2022-09-16T00:30:42;971.77;;;25.29;38.30
27888;BME280;15237;49.608;7.170;2022-09-16T00:31:20;971.77;;;25.29;38.31
27888;BME280;15237;49.608;7.170;2022-09-16T00:31:58;971.78;;;25.29;38.29
27888;BME280;15237;49.608;7.170;2022-09-16T00:32:36;971.80;;;25.29;38.30
27888;BME280;15237;49.608;7.170;2022-09-16T00:33:14;971.83;;;25.29;38.29
27888;BME280;15237;49.608;7.170;2022-09-16T00:33:53;971.82;;;25.28;38.32
27888;BME280;15237;49.608;7.170;2022-09-16T00:34:30;971.85;;;25.28;38.30
27888;BME280;15237;49.608;7.170;2022-09-16T00:35:08;971.89;;;25.27;38.34
27888;BME280;15237;49.608;7.170;2022-09-16T00:35:46;971.91;;;25.27;38.32
27888;BME280;15237;49.608;7.170;2022-09-16T00:36:28;971.94;;;25.27;38.32
27888;BME280;15237;49.608;7.170;2022-09-16T00:37:08;971.97;;;25.27;38.34
27888;BME280;15237;49.608;7.170;2022-09-16T00:37:45;972.01;;;25.29;38.30
27888;BME280;15237;49.608;7.170;2022-09-16T00:38:25;972.01;;;25.33;38.20
27888;BME280;15237;49.608;7.170;2022-09-16T00:39:02;972.04;;;25.38;38.11
27888;BME280;15237;49.608;7.170;2022-09-16T00:39:42;972.09;;;25.42;38.05
27888;BME280;15237;49.608;7.170;2022-09-16T00:40:24;972.10;;;25.44;38.01
27888;BME280;15237;49.608;7.170;2022-09-16T00:41:03;972.10;;;25.46;37.99
27888;BME280;15237;49.608;7.170;2022-09-16T00:41:40;972.09;;;25.47;37.95
27888;BME280;15237;49.608;7.170;2022-09-16T00:42:18;972.10;;;25.48;37.93
27888;BME280;15237;49.608;7.170;2022-09-16T00:42:59;972.03;;;25.48;37.94
27888;BME280;15237;49.608;7.170;2022-09-16T00:46:03;971.97;;;25.42;38.04
27888;BME280;15237;49.608;7.170;2022-09-16T00:47:26;972.00;;;25.37;38.13
27888;BME280;15237;49.608;7.170;2022-09-16T00:48:06;972.00;;;25.36;38.12
27888;BME280;15237;49.608;7.170;2022-09-16T00:48:47;971.98;;;25.35;38.17
27888;BME280;15237;49.608;7.170;2022-09-16T00:49:27;971.98;;;25.35;38.17
27888;BME280;15237;49.608;7.170;2022-09-16T00:50:45;971.99;;;25.34;38.17
27888;BME280;15237;49.608;7.170;2022-09-16T00:51:26;971.98;;;25.33;38.18
27888;BME280;15237;49.608;7.170;2022-09-16T00:52:07;971.95;;;25.35;38.13
27888;BME280;15237;49.608;7.170;2022-09-16T00:52:46;971.98;;;25.37;38.12
27888;BME280;15237;49.608;7.170;2022-09-16T00:53:26;971.98;;;25.37;38.12
27888;BME280;15237;49.608;7.170;2022-09-16T00:54:09;971.99;;;25.37;38.12
27888;BME280;15237;49.608;7.170;2022-09-16T00:54:47;972.00;;;25.37;38.09
27888;BME280;15237;49.608;7.170;2022-09-16T00:55:27;971.99;;;25.36;38.13
27888;BME280;15237;49.608;7.170;2022-09-16T00:56:08;972.00;;;25.35;38.14
27888;BME280;15237;49.608;7.170;2022-09-16T00:56:48;972.03;;;25.35;38.16
27888;BME280;15237;49.608;7.170;2022-09-16T00:57:29;972.06;;;25.33;38.17
27888;BME280;15237;49.608;7.170;2022-09-16T00:58:26;972.07;;;25.31;38.21
27888;BME280;15237;49.608;7.170;2022-09-16T00:59:00;972.09;;;25.30;38.24
27888;BME280;15237;49.608;7.170;2022-09-16T00:59:40;972.12;;;25.30;38.23
27888;BME280;15237;49.608;7.170;2022-09-16T01:00:20;972.16;;;25.31;38.22
27888;BME280;15237;49.608;7.170;2022-09-16T01:00:59;972.15;;;25.29;38.25
27888;BME280;15237;49.608;7.170;2022-09-16T01:01:37;972.17;;;25.27;38.30
27888;BME280;15237;49.608;7.170;2022-09-16T01:02:16;972.20;;;25.28;38.26
27888;BME280;15237;49.608;7.170;2022-09-16T01:02:56;972.17;;;25.29;38.23
27888;BME280;15237;49.608;7.170;2022-09-16T01:03:37;972.17;;;25.30;38.23
27888;BME280;15237;49.608;7.170;2022-09-16T01:04:17;972.19;;;25.32;38.20
27888;BME280;15237;49.608;7.170;2022-09-16T01:05:06;972.19;;;25.34;38.15
27888;BME280;15237;49.608;7.170;2022-09-16T01:05:46;972.20;;;25.35;38.12
27888;BME280;15237;49.608;7.170;2022-09-16T01:06:24;972.22;;;25.36;38.12
27888;BME280;15237;49.608;7.170;2022-09-16T01:07:04;972.22;;;25.38;38.07
27888;BME280;15237;49.608;7.170;2022-09-16T01:07:49;972.26;;;25.41;38.02
27888;BME280;15237;49.608;7.170;2022-09-16T01:08:27;972.26;;;25.40;38.06
27888;BME280;15237;49.608;7.170;2022-09-16T01:09:07;972.25;;;25.39;38.07
27888;BME280;15237;49.608;7.170;2022-09-16T01:09:44;972.21;;;25.37;38.09
27888;BME280;15237;49.608;7.170;2022-09-16T01:10:23;972.24;;;25.37;38.10
27888;BME280;15237;49.608;7.170;2022-09-16T01:11:07;972.25;;;25.38;38.07
27888;BME280;15237;49.608;7.170;2022-09-16T01:11:44;972.26;;;25.40;38.04
27888;BME280;15237;49.608;7.170;2022-09-16T01:12:26;972.28;;;25.43;37.96
27888;BME280;15237;49.608;7.170;2022-09-16T01:13:05;972.32;;;25.46;37.94
27888;BME280;15237;49.608;7.170;2022-09-16T01:13:44;972.32;;;25.48;37.88
27888;BME280;15237;49.608;7.170;2022-09-16T01:14:25;972.35;;;25.48;37.89
27888;BME280;15237;49.608;7.170;2022-09-16T01:15:06;972.34;;;25.46;37.90
27888;BME280;15237;49.608;7.170;2022-09-16T01:18:33;972.20;;;25.31;38.20
27888;BME280;15237;49.608;7.170;2022-09-16T01:20:06;972.21;;;25.28;38.24
27888;BME280;15237;49.608;7.170;2022-09-16T01:25:04;972.14;;;25.23;38.36
27888;BME280;15237;49.608;7.170;2022-09-16T01:25:48;972.13;;;25.24;38.31
27888;BME280;15237;49.608;7.170;2022-09-16T01:30:55;972.28;;;25.22;38.35
27888;BME280;15237;49.608;7.170;2022-09-16T01:36:22;972.40;;;25.22;38.34
27888;BME280;15237;49.608;7.170;2022-09-16T01:40:43;972.37;;;25.20;38.38
27888;BME280;15237;49.608;7.170;2022-09-16T01:43:36;972.34;;;25.21;38.35
27888;BME280;15237;49.608;7.170;2022-09-16T01:44:18;972.34;;;25.19;38.41
27888;BME280;15237;49.608;7.170;2022-09-16T01:45:36;972.35;;;25.20;38.36
27888;BME280;15237;49.608;7.170;2022-09-16T01:46:21;972.36;;;25.20;38.37
27888;BME280;15237;49.608;7.170;2022-09-16T01:47:49;972.37;;;25.21;38.35
27888;BME280;15237;49.608;7.170;2022-09-16T01:48:33;972.38;;;25.20;38.37
27888;BME280;15237;49.608;7.170;2022-09-16T01:50:36;972.37;;;25.21;38.35
27888;BME280;15237;49.608;7.170;2022-09-16T01:53:31;972.30;;;25.18;38.41
27888;BME280;15237;49.608;7.170;2022-09-16T01:54:17;972.30;;;25.19;38.41
27888;BME280;15237;49.608;7.170;2022-09-16T01:54:59;972.34;;;25.20;38.37
27888;BME280;15237;49.608;7.170;2022-09-16T01:57:05;972.32;;;25.20;38.35
27888;BME280;15237;49.608;7.170;2022-09-16T01:58:36;972.26;;;25.20;38.37
27888;BME280;15237;49.608;7.170;2022-09-16T01:59:58;972.25;;;25.19;38.37
27888;BME280;15237;49.608;7.170;2022-09-16T02:00:39;972.26;;;25.19;38.38
27888;BME280;15237;49.608;7.170;2022-09-16T02:01:29;972.27;;;25.20;38.36
27888;BME280;15237;49.608;7.170;2022-09-16T02:02:28;972.25;;;25.21;38.33
27888;BME280;15237;49.608;7.170;2022-09-16T02:03:32;972.21;;;25.21;38.35
27888;BME280;15237;49.608;7.170;2022-09-16T02:04:15;972.18;;;25.19;38.38
27888;BME280;15237;49.608;7.170;2022-09-16T02:04:56;972.16;;;25.19;38.40
27888;BME280;15237;49.608;7.170;2022-09-16T02:06:19;972.16;;;25.20;38.35
27888;BME280;15237;49.608;7.170;2022-09-16T02:06:58;972.20;;;25.21;38.34
27888;BME280;15237;49.608;7.170;2022-09-16T02:07:39;972.20;;;25.20;38.34
27888;BME280;15237;49.608;7.170;2022-09-16T02:09:03;972.18;;;25.19;38.37
27888;BME280;15237;49.608;7.170;2022-09-16T02:09:45;972.16;;;25.18;38.39
27888;BME280;15237;49.608;7.170;2022-09-16T02:10:36;972.14;;;25.20;38.34
27888;BME280;15237;49.608;7.170;2022-09-16T02:11:13;972.15;;;25.21;38.32
27888;BME280;15237;49.608;7.170;2022-09-16T02:11:53;972.12;;;25.21;38.35
27888;BME280;15237;49.608;7.170;2022-09-16T02:12:37;972.16;;;25.22;38.29
27888;BME280;15237;49.608;7.170;2022-09-16T02:13:18;972.17;;;25.23;38.29
27888;BME280;15237;49.608;7.170;2022-09-16T02:14:41;972.16;;;25.23;38.28
27888;BME280;15237;49.608;7.170;2022-09-16T02:15:23;972.16;;;25.24;38.26
27888;BME280;15237;49.608;7.170;2022-09-16T02:16:04;972.15;;;25.23;38.29
27888;BME280;15237;49.608;7.170;2022-09-16T02:17:27;972.14;;;25.23;38.28
27888;BME280;15237;49.608;7.170;2022-09-16T02:18:09;972.17;;;25.23;38.27
27888;BME280;15237;49.608;7.170;2022-09-16T02:18:49;972.15;;;25.23;38.24
27888;BME280;15237;49.608;7.170;2022-09-16T02:19:38;972.13;;;25.23;38.24
27888;BME280;15237;49.608;7.170;2022-09-16T02:20:16;972.09;;;25.22;38.28
27888;BME280;15237;49.608;7.170;2022-09-16T02:20:56;972.08;;;25.21;38.30
27888;BME280;15237;49.608;7.170;2022-09-16T02:21:36;972.05;;;25.21;38.29
27888;BME280;15237;49.608;7.170;2022-09-16T02:22:23;972.03;;;25.21;38.31
27888;BME280;15237;49.608;7.170;2022-09-16T02:23:05;972.03;;;25.21;38.31
27888;BME280;15237;49.608;7.170;2022-09-16T02:23:46;972.02;;;25.22;38.28
27888;BME280;15237;49.608;7.170;2022-09-16T02:24:26;972.04;;;25.23;38.27
27888;BME280;15237;49.608;7.170;2022-09-16T02:25:06;972.09;;;25.24;38.24
27888;BME280;15237;49.608;7.170;2022-09-16T02:25:49;972.06;;;25.23;38.27
27888;BME280;15237;49.608;7.170;2022-09-16T02:26:39;972.08;;;25.23;38.26
27888;BME280;15237;49.608;7.170;2022-09-16T02:27:12;972.06;;;25.22;38.26
27888;BME280;15237;49.608;7.170;2022-09-16T02:27:51;972.07;;;25.22;38.29
27888;BME280;15237;49.608;7.170;2022-09-16T02:28:32;972.07;;;25.22;38.27
27888;BME280;15237;49.608;7.170;2022-09-16T02:29:12;972.06;;;25.23;38.26
27888;BME280;15237;49.608;7.170;2022-09-16T02:30:42;972.08;;;25.22;38.29
27888;BME280;15237;49.608;7.170;2022-09-16T02:31:22;972.09;;;25.22;38.29
27888;BME280;15237;49.608;7.170;2022-09-16T02:32:02;972.09;;;25.22;38.27
27888;BME280;15237;49.608;7.170;2022-09-16T02:32:44;972.10;;;25.22;38.26
27888;BME280;15237;49.608;7.170;2022-09-16T02:33:23;972.10;;;25.22;38.26
27888;BME280;15237;49.608;7.170;2022-09-16T02:34:07;972.08;;;25.21;38.29
27888;BME280;15237;49.608;7.170;2022-09-16T02:34:49;972.09;;;25.21;38.29
27888;BME280;15237;49.608;7.170;2022-09-16T02:35:29;972.09;;;25.25;38.20
27888;BME280;15237;49.608;7.170;2022-09-16T02:36:08;972.09;;;25.26;38.19
27888;BME280;15237;49.608;7.170;2022-09-16T02:36:49;972.11;;;25.26;38.20
27888;BME280;15237;49.608;7.170;2022-09-16T02:37:33;972.10;;;25.24;38.21
27888;BME280;15237;49.608;7.170;2022-09-16T02:38:15;972.13;;;25.25;38.20
27888;BME280;15237;49.608;7.170;2022-09-16T02:38:56;972.12;;;25.24;38.22
27888;BME280;15237;49.608;7.170;2022-09-16T02:39:38;972.13;;;25.24;38.23
27888;BME280;15237;49.608;7.170;2022-09-16T02:40:32;972.14;;;25.23;38.24
27888;BME280;15237;49.608;7.170;2022-09-16T02:41:00;972.16;;;25.24;38.22
27888;BME280;15237;49.608;7.170;2022-09-16T02:41:40;972.17;;;25.23;38.22
27888;BME280;15237;49.608;7.170;2022-09-16T02:42:18;972.17;;;25.23;38.25
27888;BME280;15237;49.608;7.170;2022-09-16T02:42:56;972.17;;;25.21;38.27
27888;BME280;15237;49.608;7.170;2022-09-16T02:43:37;972.18;;;25.20;38.30
27888;BME280;15237;49.608;7.170;2022-09-16T02:44:15;972.21;;;25.20;38.28
27888;BME280;15237;49.608;7.170;2022-09-16T02:44:57;972.20;;;25.19;38.27
27888;BME280;15237;49.608;7.170;2022-09-16T02:47:00;972.19;;;25.17;38.34
27888;BME280;15237;49.608;7.170;2022-09-16T02:49:11;972.12;;;25.17;38.31
27888;BME280;15237;49.608;7.170;2022-09-16T02:49:12;972.15;;;25.18;38.31
27888;BME280;15237;49.608;7.170;2022-09-16T02:50:33;972.08;;;25.17;38.32
27888;BME280;15237;49.608;7.170;2022-09-16T02:52:04;972.10;;;25.18;38.33
27888;BME280;15237;49.608;7.170;2022-09-16T02:54:52;972.13;;;25.17;38.33
27888;BME280;15237;49.608;7.170;2022-09-16T02:56:54;972.11;;;25.17;38.33
27888;BME280;15237;49.608;7.170;2022-09-16T02:57:36;972.11;;;25.17;38.34
27888;BME280;15237;49.608;7.170;2022-09-16T02:58:14;972.08;;;25.19;38.29
27888;BME280;15237;49.608;7.170;2022-09-16T02:58:52;972.08;;;25.21;38.26
27888;BME280;15237;49.608;7.170;2022-09-16T02:59:31;972.06;;;25.20;38.27
27888;BME280;15237;49.608;7.170;2022-09-16T03:00:09;972.05;;;25.21;38.25
27888;BME280;15237;49.608;7.170;2022-09-16T03:00:50;972.05;;;25.26;38.15
27888;BME280;15237;49.608;7.170;2022-09-16T03:01:30;972.06;;;25.31;38.08
27888;BME280;15237;49.608;7.170;2022-09-16T03:02:14;972.03;;;25.32;38.06
27888;BME280;15237;49.608;7.170;2022-09-16T03:02:52;972.02;;;25.30;38.08
27888;BME280;15237;49.608;7.170;2022-09-16T03:03:30;972.01;;;25.28;38.11
27888;BME280;15237;49.608;7.170;2022-09-16T03:04:10;972.02;;;25.25;38.16
27888;BME280;15237;49.608;7.170;2022-09-16T03:04:49;971.99;;;25.23;38.21
27888;BME280;15237;49.608;7.170;2022-09-16T03:05:27;971.99;;;25.22;38.22
27888;BME280;15237;49.608;7.170;2022-09-16T03:06:47;972.00;;;25.19;38.26
27888;BME280;15237;49.608;7.170;2022-09-16T03:07:24;971.97;;;25.17;38.31
27888;BME280;15237;49.608;7.170;2022-09-16T03:08:04;972.00;;;25.17;38.31
27888;BME280;15237;49.608;7.170;2022-09-16T03:08:46;972.00;;;25.15;38.35
27888;BME280;15237;49.608;7.170;2022-09-16T03:09:24;972.00;;;25.15;38.35
27888;BME280;15237;49.608;7.170;2022-09-16T03:10:03;971.99;;;25.14;38.38
27888;BME280;15237;49.608;7.170;2022-09-16T03:10:42;971.99;;;25.13;38.34
27888;BME280;15237;49.608;7.170;2022-09-16T03:13:39;971.98;;;25.15;38.33
27888;BME280;15237;49.608;7.170;2022-09-16T03:14:20;971.98;;;25.14;38.35
27888;BME280;15237;49.608;7.170;2022-09-16T03:15:50;971.97;;;25.14;38.35
27888;BME280;15237;49.608;7.170;2022-09-16T03:16:39;971.97;;;25.14;38.37
27888;BME280;15237;49.608;7.170;2022-09-16T03:17:18;971.96;;;25.13;38.36
27888;BME280;15237;49.608;7.170;2022-09-16T03:19:25;971.97;;;25.15;38.32
27888;BME280;15237;49.608;7.170;2022-09-16T03:20:09;971.96;;;25.14;38.36
27888;BME280;15237;49.608;7.170;2022-09-16T03:20:50;971.95;;;25.15;38.35
27888;BME280;15237;49.608;7.170;2022-09-16T03:22:20;971.94;;;25.15;38.34
27888;BME280;15237;49.608;7.170;2022-09-16T03:24:17;971.92;;;25.11;38.41
27888;BME280;15237;49.608;7.170;2022-09-16T03:25:02;971.92;;;25.10;38.41
27888;BME280;15237;49.608;7.170;2022-09-16T03:25:46;971.95;;;25.12;38.39
27888;BME280;15237;49.608;7.170;2022-09-16T03:26:30;971.95;;;25.12;38.39
27888;BME280;15237;49.608;7.170;2022-09-16T03:27:11;971.95;;;25.13;38.38
27888;BME280;15237;49.608;7.170;2022-09-16T03:27:57;971.98;;;25.14;38.36
27888;BME280;15237;49.608;7.170;2022-09-16T03:29:24;971.98;;;25.14;38.34
27888;BME280;15237;49.608;7.170;2022-09-16T03:30:03;972.00;;;25.15;38.31
27888;BME280;15237;49.608;7.170;2022-09-16T03:31:26;972.00;;;25.14;38.34
27888;BME280;15237;49.608;7.170;2022-09-16T03:32:49;972.00;;;25.14;38.35
27888;BME280;15237;49.608;7.170;2022-09-16T03:34:16;972.02;;;25.13;38.37
27888;BME280;15237;49.608;7.170;2022-09-16T03:35:42;972.03;;;25.13;38.37
27888;BME280;15237;49.608;7.170;2022-09-16T03:36:23;972.04;;;25.13;38.34
27888;BME280;15237;49.608;7.170;2022-09-16T03:37:06;972.03;;;25.14;38.35
27888;BME280;15237;49.608;7.170;2022-09-16T03:37:45;972.04;;;25.17;38.28
27888;BME280;15237;49.608;7.170;2022-09-16T03:38:26;972.04;;;25.16;38.29
27888;BME280;15237;49.608;7.170;2022-09-16T03:39:07;972.04;;;25.16;38.30
27888;BME280;15237;49.608;7.170;2022-09-16T03:39:47;972.01;;;25.16;38.29
27888;BME280;15237;49.608;7.170;2022-09-16T03:40:26;972.02;;;25.17;38.29
27888;BME280;15237;49.608;7.170;2022-09-16T03:41:05;972.01;;;25.16;38.27
27888;BME280;15237;49.608;7.170;2022-09-16T03:41:50;972.00;;;25.16;38.27
27888;BME280;15237;49.608;7.170;2022-09-16T03:42:28;972.01;;;25.16;38.27
27888;BME280;15237;49.608;7.170;2022-09-16T03:43:13;972.03;;;25.16;38.28
27888;BME280;15237;49.608;7.170;2022-09-16T03:43:53;972.01;;;25.15;38.28
27888;BME280;15237;49.608;7.170;2022-09-16T03:44:33;972.04;;;25.17;38.28
27888;BME280;15237;49.608;7.170;2022-09-16T03:45:13;972.04;;;25.17;38.27
27888;BME280;15237;49.608;7.170;2022-09-16T03:45:55;972.04;;;25.18;38.23
27888;BME280;15237;49.608;7.170;2022-09-16T03:46:33;972.04;;;25.17;38.26
27888;BME280;15237;49.608;7.170;2022-09-16T03:47:12;972.05;;;25.17;38.27
27888;BME280;15237;49.608;7.170;2022-09-16T03:47:52;972.05;;;25.16;38.28
27888;BME280;15237;49.608;7.170;2022-09-16T03:48:30;972.03;;;25.15;38.30
27888;BME280;15237;49.608;7.170;2022-09-16T03:49:08;972.03;;;25.14;38.31
27888;BME280;15237;49.608;7.170;2022-09-16T03:49:47;972.02;;;25.14;38.30
27888;BME280;15237;49.608;7.170;2022-09-16T03:50:24;972.02;;;25.15;38.29
27888;BME280;15237;49.608;7.170;2022-09-16T03:51:02;972.00;;;25.14;38.33
27888;BME280;15237;49.608;7.170;2022-09-16T03:51:41;972.01;;;25.14;38.32
27888;BME280;15237;49.608;7.170;2022-09-16T03:52:21;971.98;;;25.12;38.32
27888;BME280;15237;49.608;7.170;2022-09-16T03:52:59;971.98;;;25.13;38.35
27888;BME280;15237;49.608;7.170;2022-09-16T03:53:36;971.98;;;25.13;38.33
27888;BME280;15237;49.608;7.170;2022-09-16T03:54:18;971.98;;;25.13;38.32
27888;BME280;15237;49.608;7.170;2022-09-16T03:54:56;971.99;;;25.13;38.31
27888;BME280;15237;49.608;7.170;2022-09-16T03:55:35;972.00;;;25.14;38.29
27888;BME280;15237;49.608;7.170;2022-09-16T03:56:14;971.99;;;25.14;38.30
27888;BME280;15237;49.608;7.170;2022-09-16T03:56:52;971.98;;;25.13;38.34
27888;BME280;15237;49.608;7.170;2022-09-16T03:57:29;971.99;;;25.13;38.33
27888;BME280;15237;49.608;7.170;2022-09-16T03:58:11;971.97;;;25.14;38.31
27888;BME280;15237;49.608;7.170;2022-09-16T03:58:50;971.97;;;25.13;38.32
27888;BME280;15237;49.608;7.170;2022-09-16T03:59:28;971.95;;;25.13;38.32
27888;BME280;15237;49.608;7.170;2022-09-16T04:00:08;971.94;;;25.13;38.32
27888;BME280;15237;49.608;7.170;2022-09-16T04:00:47;971.96;;;25.13;38.33
27888;BME280;15237;49.608;7.170;2022-09-16T04:01:25;971.95;;;25.13;38.32
27888;BME280;15237;49.608;7.170;2022-09-16T04:02:03;971.95;;;25.12;38.35
27888;BME280;15237;49.608;7.170;2022-09-16T04:02:41;971.94;;;25.12;38.34
27888;BME280;15237;49.608;7.170;2022-09-16T04:03:20;971.96;;;25.13;38.32
27888;BME280;15237;49.608;7.170;2022-09-16T04:04:02;971.93;;;25.14;38.33
27888;BME280;15237;49.608;7.170;2022-09-16T04:04:40;971.94;;;25.14;38.30
27888;BME280;15237;49.608;7.170;2022-09-16T04:05:19;971.92;;;25.14;38.30
27888;BME280;15237;49.608;7.170;2022-09-16T04:06:03;971.92;;;25.15;38.26
27888;BME280;15237;49.608;7.170;2022-09-16T04:06:45;971.92;;;25.15;38.27
27888;BME280;15237;49.608;7.170;2022-09-16T04:07:23;971.90;;;25.13;38.31
27888;BME280;15237;49.608;7.170;2022-09-16T04:08:03;971.92;;;25.13;38.31
27888;BME280;15237;49.608;7.170;2022-09-16T04:08:41;971.92;;;25.13;38.30
27888;BME280;15237;49.608;7.170;2022-09-16T04:09:18;971.91;;;25.13;38.30
27888;BME280;15237;49.608;7.170;2022-09-16T04:09:56;971.93;;;25.13;38.31
27888;BME280;15237;49.608;7.170;2022-09-16T04:10:35;971.92;;;25.13;38.33
27888;BME280;15237;49.608;7.170;2022-09-16T04:11:13;971.94;;;25.12;38.33
27888;BME280;15237;49.608;7.170;2022-09-16T04:11:52;971.94;;;25.13;38.34
27888;BME280;15237;49.608;7.170;2022-09-16T04:12:31;971.95;;;25.13;38.31
27888;BME280;15237;49.608;7.170;2022-09-16T04:13:08;971.93;;;25.13;38.32
27888;BME280;15237;49.608;7.170;2022-09-16T04:13:46;971.93;;;25.13;38.31
27888;BME280;15237;49.608;7.170;2022-09-16T04:14:24;971.93;;;25.13;38.31
27888;BME280;15237;49.608;7.170;2022-09-16T04:15:02;971.92;;;25.12;38.31
27888;BME280;15237;49.608;7.170;2022-09-16T04:15:41;971.90;;;25.11;38.35
27888;BME280;15237;49.608;7.170;2022-09-16T04:16:19;971.91;;;25.10;38.34
27888;BME280;15237;49.608;7.170;2022-09-16T04:16:59;971.92;;;25.10;38.36
27888;BME280;15237;49.608;7.170;2022-09-16T04:17:36;971.92;;;25.10;38.38
27888;BME280;15237;49.608;7.170;2022-09-16T04:18:16;971.90;;;25.10;38.35
27888;BME280;15237;49.608;7.170;2022-09-16T04:18:54;971.89;;;25.10;38.36
27888;BME280;15237;49.608;7.170;2022-09-16T04:19:32;971.89;;;25.10;38.38
27888;BME280;15237;49.608;7.170;2022-09-16T04:20:12;971.89;;;25.10;38.36
27888;BME280;15237;49.608;7.170;2022-09-16T04:20:54;971.88;;;25.10;38.33
27888;BME280;15237;49.608;7.170;2022-09-16T04:21:32;971.86;;;25.09;38.37
27888;BME280;15237;49.608;7.170;2022-09-16T04:22:11;971.85;;;25.10;38.35
27888;BME280;15237;49.608;7.170;2022-09-16T04:22:48;971.86;;;25.10;38.34
27888;BME280;15237;49.608;7.170;2022-09-16T04:23:27;971.87;;;25.10;38.35
27888;BME280;15237;49.608;7.170;2022-09-16T04:24:12;971.84;;;25.09;38.36
27888;BME280;15237;49.608;7.170;2022-09-16T04:24:50;971.84;;;25.11;38.32
27888;BME280;15237;49.608;7.170;2022-09-16T04:25:28;971.82;;;25.11;38.32
27888;BME280;15237;49.608;7.170;2022-09-16T04:26:08;971.80;;;25.11;38.32
27888;BME280;15237;49.608;7.170;2022-09-16T04:26:47;971.81;;;25.12;38.32
27888;BME280;15237;49.608;7.170;2022-09-16T04:27:24;971.78;;;25.11;38.32
27888;BME280;15237;49.608;7.170;2022-09-16T04:28:08;971.76;;;25.11;38.31
27888;BME280;15237;49.608;7.170;2022-09-16T04:28:47;971.75;;;25.09;38.35
27888;BME280;15237;49.608;7.170;2022-09-16T04:29:25;971.77;;;25.09;38.37
27888;BME280;15237;49.608;7.170;2022-09-16T04:30:03;971.80;;;25.09;38.35
27888;BME280;15237;49.608;7.170;2022-09-16T04:30:45;971.81;;;25.10;38.34
27888;BME280;15237;49.608;7.170;2022-09-16T04:31:24;971.82;;;25.10;38.34
27888;BME280;15237;49.608;7.170;2022-09-16T04:32:02;971.82;;;25.09;38.34
27888;BME280;15237;49.608;7.170;2022-09-16T04:32:41;971.83;;;25.08;38.38
27888;BME280;15237;49.608;7.170;2022-09-16T04:33:19;971.83;;;25.08;38.42
27888;BME280;15237;49.608;7.170;2022-09-16T04:33:56;971.85;;;25.07;38.41
27888;BME280;15237;49.608;7.170;2022-09-16T04:34:36;971.85;;;25.06;38.44
27888;BME280;15237;49.608;7.170;2022-09-16T04:35:14;971.86;;;25.06;38.43
27888;BME280;15237;49.608;7.170;2022-09-16T04:35:52;971.86;;;25.06;38.42